CheckWX is a tool to help pilots better visualize weather data.  It is not intended as a substitute for an official pre-flight weather briefing.

04:43:21 UTC

ESMS TAF
Malmö Sturup Airport
Malmö, Sweden
TAF AMD ESMS 230108Z 2301/2324 23010KT 0200 FG BKN002 TEMPO 2301/2307 3500 BR SCT005 BECMG 2307/2309 29012KT 4000 BR SCT004 BKN005 BECMG 2309/2311 9999 NSW BKN015

Mar-23@
01:00 UTC

Mar-23 @ 01:00 UTC

Mar-23@
07:00 UTC

Mar-23 @ 07:00 UTC

TAF AMD ESMS 230108Z 2301/2324 23010KT 0200 FG BKN002
Wind
  • 230° at 10 KTS
Conditions
Fog
Cloud Levels
  • Broken at 200' AGL

Mar-23@
01:00 UTC

Mar-23 @ 01:00 UTC

Mar-23@
07:00 UTC

Mar-23 @ 07:00 UTC

TEMPO 2301/2307 3500 BR SCT005

Temporary

Temporary Changes expected for less than half the time period

Conditions
Mist
Cloud Levels
  • Scattered at 500' AGL

Mar-23@
07:00 UTC

Mar-23 @ 07:00 UTC

Mar-23@
09:00 UTC

Mar-23 @ 09:00 UTC

BECMG 2307/2309 29012KT 4000 BR SCT004 BKN005

Becoming

Becoming Conditions expected by Sat, Mar 23, 2019 @ 09:00 UTC

Wind
  • 290° at 12 KTS
Conditions
Mist
Cloud Levels
  • Scattered at 400' AGL
  • Broken at 500' AGL

Mar-23@
09:00 UTC

Mar-23 @ 09:00 UTC

Mar-24@
00:00 UTC

Mar-24 @ 00:00 UTC

BECMG 2309/2311 9999 NSW BKN015

Becoming

Becoming Conditions expected by Sat, Mar 23, 2019 @ 11:00 UTC

Wind
  • 290° at 12 KTS
Conditions
No significant weather
Cloud Levels
  • Broken at 1,500' AGL